Time;durP1;ratioP1;P1;durP2;ratioP2;P2;SDS_P1;SDS_P2;PMS_P1;PMS_P2;Temp;Humidity;BMP_temperature;BMP_pressure;BME280_temperature;BME280_humidity;BME280_pressure;Samples;Min_cycle;Max_cycle;Signal;HPM_P1;HPM_P2
2022/05/08 00:00:01;;;;;;;6.35;5.63;;;9.80;99.90;;;;;;5037978;28;20053;-75
2022/05/08 00:02:31;;;;;;;6.88;5.25;;;9.80;99.90;;;;;;5036375;28;20068;-77
2022/05/08 00:04:58;;;;;;;6.35;5.75;;;9.80;99.90;;;;;;5045857;28;20061;-76
2022/05/08 00:07:27;;;;;;;5.47;5.07;;;9.80;99.90;;;;;;5036595;28;20540;-76
2022/05/08 00:09:54;;;;;;;5.10;4.65;;;9.80;99.90;;;;;;5043417;28;20041;-75
2022/05/08 00:12:21;;;;;;;5.10;4.60;;;9.90;99.90;;;;;;5031096;28;20103;-74
2022/05/08 00:14:48;;;;;;;4.40;4.10;;;9.90;99.90;;;;;;5033261;28;20548;-75
2022/05/08 00:17:15;;;;;;;3.67;3.38;;;9.90;99.90;;;;;;5038509;28;20508;-76
2022/05/08 00:19:44;;;;;;;3.65;3.22;;;10.00;99.90;;;;;;5037036;28;20053;-76
2022/05/08 00:22:11;;;;;;;2.78;2.58;;;10.10;99.90;;;;;;5037955;28;20041;-78
2022/05/08 00:24:40;;;;;;;1.63;1.52;;;10.10;99.90;;;;;;5052056;28;20086;-76
2022/05/08 00:27:08;;;;;;;1.33;1.23;;;10.10;99.90;;;;;;5053250;28;20055;-75
2022/05/08 00:29:35;;;;;;;1.42;1.23;;;10.20;99.90;;;;;;5031145;28;20548;-76
2022/05/08 00:32:02;;;;;;;1.00;1.00;;;10.10;99.90;;;;;;5032667;28;20048;-77
2022/05/08 00:34:30;;;;;;;2.90;1.10;;;10.20;99.90;;;;;;5032683;28;20115;-77
2022/05/08 00:37:00;;;;;;;0.70;0.70;;;10.10;99.90;;;;;;5040593;28;20508;-77
2022/05/08 00:39:28;;;;;;;0.60;0.60;;;10.10;99.90;;;;;;5052109;28;20060;-77
2022/05/08 00:41:56;;;;;;;0.50;0.43;;;10.20;99.90;;;;;;5034108;28;20485;-76
2022/05/08 00:44:23;;;;;;;1.10;0.40;;;10.10;99.90;;;;;;5051844;28;20641;-77
2022/05/08 00:46:51;;;;;;;2.35;0.35;;;10.10;99.90;;;;;;5037458;28;20080;-77
2022/05/08 00:49:18;;;;;;;0.15;0.15;;;10.10;99.90;;;;;;5030515;28;20140;-77
2022/05/08 00:51:49;;;;;;;0.35;0.20;;;10.00;99.90;;;;;;5032783;28;20049;-76
2022/05/08 00:54:17;;;;;;;0.68;0.63;;;9.90;99.90;;;;;;5035193;28;20053;-76
2022/05/08 00:56:45;;;;;;;0.73;0.30;;;9.80;99.90;;;;;;5041150;28;20464;-77
2022/05/08 00:59:14;;;;;;;0.80;0.45;;;9.70;99.90;;;;;;5030682;28;20057;-77
2022/05/08 01:01:41;;;;;;;0.57;0.40;;;9.70;99.90;;;;;;5032569;28;20148;-78
2022/05/08 01:04:08;;;;;;;1.92;0.70;;;9.50;99.90;;;;;;5040294;28;20428;-76
2022/05/08 01:06:36;;;;;;;0.63;0.20;;;9.40;99.90;;;;;;5048367;28;20095;-77
2022/05/08 01:09:04;;;;;;;1.08;0.50;;;9.30;99.90;;;;;;5050539;28;20461;-77
2022/05/08 01:11:31;;;;;;;0.50;0.50;;;9.30;99.90;;;;;;5035048;28;20045;-77
2022/05/08 01:13:58;;;;;;;0.93;0.40;;;9.20;99.90;;;;;;5029604;28;20132;-75
2022/05/08 01:16:27;;;;;;;1.00;0.60;;;9.20;99.90;;;;;;5014796;28;20506;-77
2022/05/08 01:18:54;;;;;;;0.50;0.43;;;9.10;99.90;;;;;;5015194;28;20041;-77
2022/05/08 01:21:31;;;;;;;0.40;0.40;;;9.10;99.90;;;;;;5045103;28;20049;-77
2022/05/08 01:23:58;;;;;;;0.82;0.70;;;9.10;99.90;;;;;;5035995;28;20509;-77
2022/05/08 01:26:25;;;;;;;0.70;0.70;;;9.00;99.90;;;;;;5029980;28;20135;-77
2022/05/08 01:28:53;;;;;;;0.88;0.80;;;9.00;99.90;;;;;;5046691;28;20049;-76
2022/05/08 01:31:20;;;;;;;2.15;0.70;;;9.00;99.90;;;;;;5052675;28;20049;-75
2022/05/08 01:33:47;;;;;;;2.10;0.88;;;9.00;99.90;;;;;;5050818;28;20050;-77
2022/05/08 01:36:14;;;;;;;1.27;0.60;;;8.90;99.90;;;;;;5049890;28;20045;-75
2022/05/08 01:38:43;;;;;;;0.85;0.70;;;8.90;99.90;;;;;;5052414;28;20155;-76
2022/05/08 01:41:10;;;;;;;1.27;0.85;;;8.80;99.90;;;;;;5041961;28;20045;-76
2022/05/08 01:43:37;;;;;;;0.90;0.70;;;8.80;99.90;;;;;;5046524;28;20072;-77
2022/05/08 01:46:05;;;;;;;1.95;0.60;;;8.60;99.90;;;;;;5032117;28;20471;-76
2022/05/08 01:48:32;;;;;;;2.45;0.70;;;8.60;99.90;;;;;;5050213;28;20052;-76
2022/05/08 01:51:01;;;;;;;1.63;1.20;;;8.60;99.90;;;;;;5051215;28;20048;-77
2022/05/08 01:53:31;;;;;;;1.98;0.90;;;8.50;99.90;;;;;;5049447;28;20055;-76
2022/05/08 01:56:02;;;;;;;2.97;1.25;;;8.50;99.90;;;;;;5046334;28;20046;-75
2022/05/08 01:58:31;;;;;;;2.58;1.00;;;8.50;99.90;;;;;;5032314;28;20049;-76
2022/05/08 02:01:00;;;;;;;3.83;1.90;;;8.40;99.90;;;;;;5034445;28;20049;-76
2022/05/08 02:03:30;;;;;;;7.32;2.05;;;8.50;99.90;;;;;;5051586;28;20048;-76
2022/05/08 02:05:58;;;;;;;4.50;2.40;;;8.50;99.90;;;;;;5046514;28;20053;-77
2022/05/08 02:08:25;;;;;;;5.43;2.50;;;8.50;99.90;;;;;;5046905;28;20045;-77
2022/05/08 02:10:55;;;;;;;3.72;1.83;;;8.50;99.90;;;;;;5037867;28;20049;-76
2022/05/08 02:13:23;;;;;;;3.63;1.92;;;8.50;99.90;;;;;;5047326;28;20596;-77
2022/05/08 02:15:51;;;;;;;4.50;1.83;;;8.50;99.90;;;;;;5043900;28;20076;-77
2022/05/08 02:18:18;;;;;;;1.75;1.38;;;8.60;99.90;;;;;;5030762;28;20054;-76
2022/05/08 02:20:46;;;;;;;3.38;1.60;;;8.60;99.90;;;;;;5048565;28;20049;-77
2022/05/08 02:23:13;;;;;;;3.05;1.55;;;8.60;99.90;;;;;;5048880;28;20049;-76
2022/05/08 02:25:40;;;;;;;2.47;1.77;;;8.50;99.90;;;;;;5039437;28;20045;-77
2022/05/08 02:28:08;;;;;;;2.55;1.20;;;8.40;99.90;;;;;;5047814;28;20073;-76
2022/05/08 02:30:37;;;;;;;1.65;1.10;;;8.40;99.90;;;;;;5042478;28;20045;-74
2022/05/08 02:33:04;;;;;;;3.72;1.38;;;8.30;99.90;;;;;;5030514;28;20515;-74
2022/05/08 02:35:33;;;;;;;5.47;1.20;;;8.40;99.90;;;;;;5031583;28;20153;-74
2022/05/08 02:38:00;;;;;;;1.23;0.63;;;8.30;99.90;;;;;;5052488;28;20464;-74
2022/05/08 02:40:27;;;;;;;2.80;0.80;;;8.30;99.90;;;;;;5046100;28;20059;-74
2022/05/08 02:42:54;;;;;;;1.05;0.73;;;8.20;99.90;;;;;;5048156;28;20421;-74
2022/05/08 02:45:23;;;;;;;2.03;0.63;;;8.20;99.90;;;;;;5050062;28;20540;-73
2022/05/08 02:47:51;;;;;;;1.05;0.60;;;8.20;99.90;;;;;;5047296;28;20061;-74
2022/05/08 02:50:20;;;;;;;1.10;0.77;;;8.30;99.90;;;;;;5048590;28;20056;-77
2022/05/08 02:52:47;;;;;;;0.60;0.60;;;8.30;99.90;;;;;;5047623;28;20052;-76
2022/05/08 03:00:46;;;;;;;1.85;0.80;;;8.00;99.90;;;;;;5030802;28;20462;-76
2022/05/08 03:03:15;;;;;;;1.80;0.88;;;7.90;99.90;;;;;;5045702;28;20099;-77
2022/05/08 03:05:44;;;;;;;1.15;1.05;;;7.90;99.90;;;;;;5040701;28;20098;-77
2022/05/08 03:08:14;;;;;;;0.70;0.50;;;8.00;99.90;;;;;;5052853;28;20428;-77
2022/05/08 03:13:27;;;;;;;0.60;0.60;;;8.10;99.90;;;;;;5049816;28;20106;-76
2022/05/08 03:15:54;;;;;;;0.70;0.70;;;8.10;99.90;;;;;;5037736;28;20049;-76
2022/05/08 03:18:23;;;;;;;1.75;1.55;;;8.10;99.90;;;;;;5028719;28;20087;-76
2022/05/08 03:20:50;;;;;;;1.08;0.68;;;8.20;99.90;;;;;;5037444;28;20041;-77
2022/05/08 03:23:17;;;;;;;0.82;0.70;;;8.20;99.90;;;;;;5049956;28;20049;-76
2022/05/08 03:25:45;;;;;;;1.00;0.90;;;8.20;99.90;;;;;;5035505;28;20046;-76
2022/05/08 03:28:12;;;;;;;2.30;0.80;;;8.20;99.90;;;;;;5030020;28;20096;-76
2022/05/08 03:30:40;;;;;;;0.60;0.60;;;8.30;99.90;;;;;;5034785;28;20095;-76
2022/05/08 03:33:08;;;;;;;1.17;0.70;;;8.30;99.90;;;;;;5030324;28;20549;-77
2022/05/08 03:35:37;;;;;;;2.38;1.40;;;8.40;99.90;;;;;;5028914;28;20482;-77
2022/05/08 03:38:05;;;;;;;1.20;0.90;;;8.40;99.90;;;;;;5029537;28;20045;-76
2022/05/08 03:40:33;;;;;;;1.00;0.70;;;8.40;99.90;;;;;;5036336;28;20060;-75
2022/05/08 03:43:00;;;;;;;1.48;0.70;;;8.40;99.90;;;;;;5054073;28;20462;-76
2022/05/08 03:45:28;;;;;;;1.98;0.68;;;8.40;99.90;;;;;;5048882;28;20064;-75
2022/05/08 03:47:56;;;;;;;1.30;0.80;;;8.30;99.90;;;;;;5031555;28;20073;-76
2022/05/08 03:50:23;;;;;;;4.50;1.85;;;8.30;99.90;;;;;;5029578;28;20598;-75
2022/05/08 03:52:52;;;;;;;2.95;1.08;;;8.30;99.90;;;;;;5049616;28;20060;-77
2022/05/08 03:55:20;;;;;;;2.47;0.98;;;8.30;99.90;;;;;;5028136;28;20109;-75
2022/05/08 03:57:47;;;;;;;2.15;1.23;;;8.40;99.90;;;;;;5048448;28;20053;-77
2022/05/08 04:00:16;;;;;;;2.40;1.20;;;8.50;99.90;;;;;;5038906;28;20517;-78
2022/05/08 04:02:43;;;;;;;3.10;1.00;;;8.60;99.90;;;;;;5037826;28;20053;-76
2022/05/08 04:05:12;;;;;;;2.15;1.80;;;8.60;99.90;;;;;;5044981;28;20509;-76
2022/05/08 04:07:39;;;;;;;2.90;1.70;;;8.60;99.90;;;;;;5012800;28;20042;-76
2022/05/08 04:10:10;;;;;;;1.73;1.30;;;8.70;99.90;;;;;;5030190;28;20041;-75
2022/05/08 04:12:38;;;;;;;5.38;1.30;;;8.80;99.90;;;;;;5030621;28;20529;-79
2022/05/08 04:16:15;;;;;;;3.03;1.83;;;8.80;99.90;;;;;;5037331;28;20128;-78
2022/05/08 04:17:56;;;;;;;2.42;1.80;;;8.90;99.90;;;;;;5050624;28;20045;-77
2022/05/08 04:20:24;;;;;;;3.80;1.98;;;9.00;99.90;;;;;;5029585;28;20045;-78
2022/05/08 04:25:37;;;;;;;1.88;1.13;;;9.00;99.90;;;;;;5069355;28;20037;-75
2022/05/08 04:28:05;;;;;;;3.03;1.52;;;9.00;99.90;;;;;;5081603;28;20049;-77
2022/05/08 04:30:33;;;;;;;3.70;1.67;;;8.80;99.90;;;;;;5045124;28;20540;-75
2022/05/08 04:33:00;;;;;;;7.43;2.67;;;8.80;99.90;;;;;;5050192;28;20520;-77
2022/05/08 04:35:27;;;;;;;4.32;2.47;;;8.70;99.90;;;;;;5053159;28;20044;-76
2022/05/08 04:37:55;;;;;;;3.70;2.33;;;8.80;99.90;;;;;;5052897;28;20049;-76
2022/05/08 04:40:23;;;;;;;3.50;2.35;;;8.80;99.90;;;;;;5055730;28;20600;-76
2022/05/08 04:42:51;;;;;;;4.95;2.53;;;8.90;99.90;;;;;;5050731;28;20057;-77
2022/05/08 04:45:19;;;;;;;5.82;2.75;;;8.90;99.90;;;;;;5036233;28;20057;-78
2022/05/08 04:47:46;;;;;;;4.63;3.10;;;8.90;99.90;;;;;;5038114;28;20065;-77
2022/05/08 04:50:13;;;;;;;3.83;2.97;;;8.90;99.90;;;;;;5033987;28;20048;-76
2022/05/08 04:52:40;;;;;;;4.57;2.85;;;9.00;99.90;;;;;;5051917;28;20095;-78
2022/05/08 04:55:08;;;;;;;4.70;2.33;;;8.90;99.90;;;;;;5063754;28;20044;-76
2022/05/08 04:57:36;;;;;;;6.00;2.53;;;8.90;99.90;;;;;;5048895;28;20509;-76
2022/05/08 05:00:08;;;;;;;3.72;2.15;;;9.00;99.90;;;;;;5043601;28;20056;-77
2022/05/08 05:02:35;;;;;;;3.90;2.33;;;9.00;99.90;;;;;;5071790;28;20075;-76
2022/05/08 05:05:02;;;;;;;3.67;1.75;;;9.00;99.90;;;;;;5061969;28;20287;-77
2022/05/08 05:07:30;;;;;;;2.00;1.42;;;9.10;99.90;;;;;;5044546;28;20056;-77
2022/05/08 05:09:57;;;;;;;4.68;1.48;;;9.30;99.90;;;;;;5032111;28;20564;-77
2022/05/08 05:12:24;;;;;;;1.60;1.13;;;9.50;99.90;;;;;;5031314;28;20100;-78
2022/05/08 05:14:52;;;;;;;2.22;2.10;;;9.60;99.90;;;;;;5033787;28;20049;-75
2022/05/08 05:17:20;;;;;;;3.00;2.20;;;9.70;99.90;;;;;;5048655;28;20516;-78
2022/05/08 05:19:47;;;;;;;2.28;2.08;;;9.70;99.90;;;;;;5050837;28;20371;-75
2022/05/08 05:22:15;;;;;;;4.85;2.10;;;9.60;99.90;;;;;;5043879;28;20129;-74
2022/05/08 05:24:45;;;;;;;3.28;2.45;;;9.50;99.90;;;;;;5037825;28;20068;-74
2022/05/08 05:27:12;;;;;;;7.15;2.33;;;9.30;99.90;;;;;;5051002;28;20084;-76
2022/05/08 05:29:40;;;;;;;9.27;2.60;;;9.30;99.90;;;;;;5056494;28;20063;-76
2022/05/08 05:32:08;;;;;;;3.90;2.05;;;9.30;99.90;;;;;;5050684;28;20048;-76
2022/05/08 05:34:37;;;;;;;4.28;2.10;;;9.20;99.90;;;;;;5049808;28;20048;-77
2022/05/08 05:37:11;;;;;;;6.50;2.15;;;9.10;99.90;;;;;;5049619;28;20060;-77
2022/05/08 05:39:38;;;;;;;3.40;1.85;;;9.20;99.90;;;;;;5049733;28;20049;-77
2022/05/08 05:42:06;;;;;;;3.13;1.70;;;9.20;99.90;;;;;;5050957;28;20080;-77
2022/05/08 05:44:33;;;;;;;2.15;1.50;;;9.20;99.90;;;;;;5023626;28;20096;-78
2022/05/08 05:49:46;;;;;;;2.20;1.63;;;9.30;99.90;;;;;;5031236;28;20504;-79
2022/05/08 05:52:14;;;;;;;1.25;1.08;;;9.30;99.90;;;;;;5032607;28;20544;-75
2022/05/08 05:54:41;;;;;;;6.03;1.67;;;9.30;99.90;;;;;;5031413;28;20053;-77
2022/05/08 05:57:08;;;;;;;4.13;1.30;;;9.40;99.90;;;;;;5014093;28;20586;-79
2022/05/08 05:59:36;;;;;;;3.47;1.40;;;9.30;99.90;;;;;;5032236;28;20076;-74
2022/05/08 06:02:04;;;;;;;2.38;1.48;;;9.20;99.90;;;;;;5033282;28;20045;-75
2022/05/08 06:04:34;;;;;;;2.33;1.20;;;9.20;99.90;;;;;;5060996;28;20041;-76
2022/05/08 06:07:03;;;;;;;4.63;1.35;;;9.10;99.90;;;;;;5051651;28;20069;-74
2022/05/08 06:09:30;;;;;;;4.82;2.10;;;9.10;99.90;;;;;;5068390;28;20040;-77
2022/05/08 06:11:59;;;;;;;2.83;1.52;;;9.20;99.90;;;;;;5056081;28;20041;-74
2022/05/08 06:14:29;;;;;;;6.63;1.45;;;9.10;99.90;;;;;;5043848;28;20049;-73
2022/05/08 06:17:04;;;;;;;2.28;1.33;;;9.20;99.90;;;;;;5031581;28;20049;-75
2022/05/08 06:19:32;;;;;;;2.33;1.98;;;9.30;99.90;;;;;;5049141;28;20051;-77
2022/05/08 06:21:59;;;;;;;4.05;1.60;;;9.40;99.90;;;;;;5047067;28;20144;-79
2022/05/08 06:24:29;;;;;;;3.47;1.42;;;9.50;99.90;;;;;;5031422;28;20049;-80
2022/05/08 06:26:57;;;;;;;4.70;1.40;;;9.50;99.90;;;;;;5046999;28;20428;-73
2022/05/08 06:29:24;;;;;;;5.25;1.33;;;9.50;99.90;;;;;;5042371;28;20075;-74
2022/05/08 06:31:52;;;;;;;2.45;1.35;;;9.50;99.90;;;;;;5048743;28;20075;-74
2022/05/08 06:34:19;;;;;;;5.10;1.45;;;9.50;99.90;;;;;;5052982;28;20064;-73
2022/05/08 06:36:49;;;;;;;4.25;1.48;;;9.50;99.90;;;;;;5045811;28;20049;-73
2022/05/08 06:39:17;;;;;;;3.08;1.42;;;9.40;99.90;;;;;;5026948;28;20052;-75
2022/05/08 06:41:47;;;;;;;3.40;1.38;;;9.20;99.90;;;;;;5045389;28;20506;-78
2022/05/08 06:44:16;;;;;;;3.00;1.43;;;9.00;99.90;;;;;;5047579;28;20045;-79
2022/05/08 06:46:43;;;;;;;2.50;1.40;;;9.00;99.90;;;;;;5046670;28;20330;-77
2022/05/08 06:49:10;;;;;;;1.80;1.30;;;9.00;99.90;;;;;;5040043;28;20049;-75
2022/05/08 06:51:38;;;;;;;1.73;1.20;;;9.00;99.90;;;;;;5049973;28;20132;-73
2022/05/08 06:54:05;;;;;;;4.68;1.20;;;8.90;99.90;;;;;;5050447;28;20178;-78
2022/05/08 06:56:35;;;;;;;2.75;1.38;;;9.00;99.90;;;;;;5051224;28;20052;-79
2022/05/08 07:01:53;;;;;;;2.85;1.45;;;9.20;99.90;;;;;;5044120;28;20053;-76
2022/05/08 07:04:21;;;;;;;2.30;1.60;;;9.50;99.90;;;;;;5046295;28;20080;-77
2022/05/08 07:07:17;;;;;;;3.28;1.88;;;9.70;99.90;;;;;;5029493;28;20056;-76
2022/05/08 07:09:44;;;;;;;4.95;1.50;;;9.80;99.90;;;;;;5030602;28;20087;-76
2022/05/08 07:12:12;;;;;;;2.90;1.58;;;10.00;99.90;;;;;;5040644;28;20058;-77
2022/05/08 07:14:42;;;;;;;2.80;1.45;;;10.10;99.90;;;;;;5033703;28;20084;-73
2022/05/08 07:17:21;;;;;;;8.70;1.95;;;10.10;99.90;;;;;;5039238;28;20053;-73
2022/05/08 07:19:48;;;;;;;5.45;2.00;;;10.20;99.90;;;;;;5036685;28;20045;-75
2022/05/08 07:22:16;;;;;;;4.75;2.00;;;10.30;99.90;;;;;;5039409;28;20086;-74
2022/05/08 07:28:48;;;;;;;4.93;2.03;;;10.50;99.90;;;;;;5030861;28;20033;-78
2022/05/08 07:31:30;;;;;;;;;;;;;;;;;;;;;
2022/05/08 07:36:42;;;;;;;3.60;1.55;;;11.10;99.90;;;;;;5013838;28;20111;-81
2022/05/08 07:39:10;;;;;;;8.23;2.17;;;11.30;99.90;;;;;;5031359;28;20460;-74
2022/05/08 07:41:38;;;;;;;5.68;1.80;;;11.40;99.90;;;;;;5031675;28;20057;-73
2022/05/08 07:44:05;;;;;;;5.97;3.70;;;11.40;99.90;;;;;;5012811;28;20495;-73
2022/05/08 07:46:34;;;;;;;4.85;1.85;;;11.50;99.90;;;;;;5029473;28;20049;-76
2022/05/08 07:49:02;;;;;;;2.88;1.70;;;11.60;99.90;;;;;;5029722;28;20080;-73
2022/05/08 07:51:29;;;;;;;2.67;1.60;;;11.90;99.90;;;;;;5029754;28;20540;-73
2022/05/08 08:01:42;;;;;;;8.27;2.25;;;12.20;99.90;;;;;;5015997;28;20055;-78
2022/05/08 08:04:10;;;;;;;5.15;1.88;;;12.20;99.90;;;;;;5051838;28;20420;-80
2022/05/08 08:06:38;;;;;;;2.22;1.50;;;12.10;99.90;;;;;;5051385;28;20052;-74
2022/05/08 08:09:05;;;;;;;3.25;1.90;;;11.90;99.90;;;;;;5052128;28;20061;-72
2022/05/08 08:11:34;;;;;;;1.80;1.38;;;12.00;99.90;;;;;;5053771;28;20054;-73
2022/05/08 08:14:02;;;;;;;6.00;1.60;;;12.00;99.90;;;;;;5056325;28;20055;-79
2022/05/08 08:16:29;;;;;;;2.63;2.08;;;12.00;99.90;;;;;;5054833;28;20048;-73
2022/05/08 08:19:00;;;;;;;2.10;1.88;;;12.10;99.90;;;;;;5044825;28;20053;-76
2022/05/08 08:21:30;;;;;;;3.80;1.50;;;12.20;99.90;;;;;;5056834;28;20132;-74
2022/05/08 08:23:58;;;;;;;3.47;1.65;;;12.40;99.90;;;;;;5052435;28;20064;-74
2022/05/08 08:26:26;;;;;;;4.03;1.75;;;12.60;99.90;;;;;;5043075;28;20055;-76
2022/05/08 08:28:53;;;;;;;3.33;1.63;;;12.60;99.90;;;;;;5018875;28;20568;-77
2022/05/08 08:31:23;;;;;;;3.55;1.92;;;12.60;99.90;;;;;;5054556;28;20061;-77
2022/05/08 08:33:56;;;;;;;3.42;2.30;;;12.60;99.90;;;;;;5050332;28;20062;-78
2022/05/08 08:36:25;;;;;;;2.00;1.40;;;12.50;99.90;;;;;;5051953;28;20449;-76
2022/05/08 08:38:53;;;;;;;5.03;1.80;;;13.40;99.90;;;;;;5051881;28;20519;-77
2022/05/08 08:41:27;;;;;;;3.88;1.67;;;14.00;99.90;;;;;;5047816;28;20087;-79
2022/05/08 08:49:35;;;;;;;3.97;1.40;;;15.50;99.90;;;;;;5051496;28;20049;-78
2022/05/08 08:52:05;;;;;;;2.33;1.30;;;16.80;91.20;;;;;;5032868;28;20045;-77
2022/05/08 08:54:32;;;;;;;4.72;3.72;;;17.40;86.20;;;;;;5048663;28;20454;-79
2022/05/08 08:57:00;;;;;;;3.05;1.70;;;18.10;81.10;;;;;;5033245;28;20080;-75
2022/05/08 08:59:31;;;;;;;2.20;1.63;;;18.20;74.70;;;;;;5046479;28;20049;-74
2022/05/08 09:01:59;;;;;;;2.38;1.63;;;18.90;72.90;;;;;;5052381;28;20059;-78
2022/05/08 09:04:26;;;;;;;2.55;2.15;;;20.00;69.50;;;;;;5044448;28;20111;-78
2022/05/08 09:06:54;;;;;;;4.32;2.70;;;20.80;64.90;;;;;;5033571;28;20156;-81
2022/05/08 09:09:31;;;;;;;1.70;1.40;;;21.50;61.10;;;;;;5048040;28;20127;-83
2022/05/08 09:11:59;;;;;;;1.95;1.60;;;21.90;58.20;;;;;;5049275;28;20057;-79
2022/05/08 09:14:31;;;;;;;2.67;2.08;;;22.10;56.60;;;;;;5049557;28;20048;-76
2022/05/08 09:17:00;;;;;;;2.38;1.52;;;22.20;56.70;;;;;;5056883;28;20049;-77
2022/05/08 09:19:36;;;;;;;4.63;1.80;;;22.40;55.60;;;;;;5048425;28;20041;-77
2022/05/08 09:22:11;;;;;;;1.67;1.23;;;22.70;55.50;;;;;;5046979;28;20449;-82
2022/05/08 09:24:53;;;;;;;3.80;1.58;;;22.30;53.90;;;;;;5065185;28;20165;-80
2022/05/08 09:27:21;;;;;;;2.50;1.30;;;22.20;54.70;;;;;;5060780;28;20052;-79
2022/05/08 09:29:48;;;;;;;3.03;1.52;;;22.60;53.70;;;;;;5063285;28;20080;-83
2022/05/08 09:32:39;;;;;;;6.68;5.00;;;23.00;53.10;;;;;;5063158;28;20058;-80
2022/05/08 09:35:07;;;;;;;2.22;1.45;;;23.10;53.00;;;;;;5035480;28;20143;-84
2022/05/08 09:37:56;;;;;;;7.07;6.05;;;23.00;51.50;;;;;;5053583;28;20088;-78
2022/05/08 09:40:45;;;;;;;2.58;2.03;;;23.00;52.10;;;;;;5049162;28;20508;-76
2022/05/08 09:43:35;;;;;;;3.45;2.42;;;23.20;51.70;;;;;;5046202;28;20045;-78
2022/05/08 09:46:25;;;;;;;;;;;;;;;;;;;;;
2022/05/08 09:48:58;;;;;;;3.55;2.47;;;23.80;50.20;;;;;;5039888;28;19924;-76
2022/05/08 09:51:26;;;;;;;4.45;1.05;;;24.00;49.20;;;;;;5038471;28;20060;-77
2022/05/08 09:53:54;;;;;;;1.95;1.42;;;24.10;47.70;;;;;;5042181;28;20128;-80
2022/05/08 09:56:28;;;;;;;5.03;3.38;;;23.90;48.00;;;;;;5053458;28;20045;-78
2022/05/08 09:59:03;;;;;;;1.85;1.55;;;23.90;47.60;;;;;;5043240;28;20070;-83
2022/05/08 10:01:37;;;;;;;4.57;1.65;;;24.00;46.40;;;;;;5034495;28;20053;-83
2022/05/08 10:04:07;;;;;;;1.95;1.38;;;23.70;47.20;;;;;;5060431;28;20044;-80
2022/05/08 10:06:42;;;;;;;4.05;2.10;;;23.90;46.10;;;;;;5071042;28;20045;-81
2022/05/08 10:14:49;;;;;;;3.42;2.17;;;24.40;46.30;;;;;;5066801;28;20049;-80
2022/05/08 10:17:28;;;;;;;6.35;1.30;;;24.40;46.70;;;;;;5047933;28;20099;-83
2022/05/08 10:20:00;;;;;;;3.55;1.30;;;24.20;47.00;;;;;;5044589;28;20397;-84
2022/05/08 10:22:48;;;;;;;4.80;2.75;;;24.10;47.40;;;;;;5049440;28;20109;-81
2022/05/08 10:25:17;;;;;;;2.88;1.33;;;24.50;47.30;;;;;;5056893;28;20064;-82
2022/05/08 10:28:08;;;;;;;1.90;1.30;;;24.70;46.90;;;;;;5052492;28;20071;-82
2022/05/08 10:30:36;;;;;;;1.52;1.30;;;25.20;46.00;;;;;;5051585;28;20095;-83
2022/05/08 10:33:04;;;;;;;1.42;1.30;;;25.30;45.40;;;;;;5046861;28;20052;-85
2022/05/08 10:35:33;;;;;;;2.38;1.38;;;25.50;47.00;;;;;;5048739;28;20053;-86
2022/05/08 10:38:21;;;;;;;1.80;1.33;;;25.70;46.40;;;;;;5058658;28;20048;-84
2022/05/08 10:41:00;;;;;;;2.25;1.20;;;26.00;45.30;;;;;;5054822;28;20536;-81
2022/05/08 10:43:37;;;;;;;3.08;1.40;;;25.80;45.00;;;;;;5061311;28;20049;-84
2022/05/08 10:46:24;;;;;;;2.90;1.20;;;25.70;44.90;;;;;;5054403;28;20045;-83
2022/05/08 10:48:54;;;;;;;6.18;1.35;;;25.90;45.90;;;;;;5067816;28;20047;-84
2022/05/08 10:51:23;;;;;;;3.03;1.27;;;25.70;44.30;;;;;;5057459;28;20053;-84
2022/05/08 10:53:51;;;;;;;1.40;1.30;;;25.70;44.10;;;;;;5052068;28;20047;-77
2022/05/08 10:56:19;;;;;;;2.90;1.50;;;25.70;44.10;;;;;;5048987;28;20177;-78
2022/05/08 10:58:56;;;;;;;2.15;1.73;;;25.70;44.50;;;;;;5063458;28;20513;-77
2022/05/08 11:01:33;;;;;;;3.40;1.23;;;25.90;44.90;;;;;;5071443;28;20143;-77
2022/05/08 11:04:11;;;;;;;2.00;1.58;;;25.80;43.70;;;;;;5050910;28;20113;-78
2022/05/08 11:06:39;;;;;;;2.85;1.58;;;26.10;44.10;;;;;;5048531;28;20049;-78
2022/05/08 11:09:09;;;;;;;2.53;1.60;;;26.00;43.30;;;;;;5045694;28;20052;-81
2022/05/08 11:11:37;;;;;;;2.90;1.20;;;26.00;43.10;;;;;;5041040;28;20053;-84
2022/05/08 11:14:06;;;;;;;4.28;1.20;;;26.10;42.90;;;;;;5049550;28;20131;-78
2022/05/08 11:16:37;;;;;;;2.28;1.20;;;26.00;42.60;;;;;;5050190;28;20084;-81
2022/05/08 11:19:06;;;;;;;4.70;1.10;;;25.90;42.00;;;;;;5065714;28;20044;-83
2022/05/08 11:21:37;;;;;;;2.13;1.40;;;25.80;42.30;;;;;;5049365;28;20072;-83
2022/05/08 11:24:07;;;;;;;4.47;1.30;;;25.70;42.10;;;;;;5063656;28;20066;-83
2022/05/08 11:26:39;;;;;;;2.67;1.10;;;25.40;42.00;;;;;;5072053;28;20166;-83
2022/05/08 11:29:08;;;;;;;3.05;0.93;;;25.30;42.60;;;;;;5058315;28;20484;-82
2022/05/08 11:31:36;;;;;;;5.15;1.27;;;25.30;42.10;;;;;;5046883;28;20412;-81
2022/05/08 11:36:48;;;;;;;4.07;1.35;;;25.80;42.70;;;;;;5072910;28;20137;-83
2022/05/08 11:39:18;;;;;;;6.60;1.65;;;25.90;43.00;;;;;;5039871;28;20068;-82
2022/05/08 11:41:49;;;;;;;2.75;1.20;;;25.60;43.60;;;;;;5051467;28;20053;-81
2022/05/08 11:44:24;;;;;;;6.00;1.30;;;23.90;45.10;;;;;;5055327;28;20132;-82
2022/05/08 11:46:55;;;;;;;4.20;1.30;;;21.70;48.50;;;;;;5038654;28;20068;-77
2022/05/08 11:49:25;;;;;;;3.30;1.10;;;22.00;49.60;;;;;;5052844;28;20696;-78
2022/05/08 11:51:57;;;;;;;3.50;0.90;;;23.30;48.00;;;;;;5051826;28;20060;-82
2022/05/08 11:54:32;;;;;;;3.15;1.15;;;24.10;46.90;;;;;;5044127;28;20060;-78
2022/05/08 11:57:14;;;;;;;6.10;1.20;;;23.80;46.90;;;;;;5047832;28;20517;-79
2022/05/08 11:59:44;;;;;;;4.13;0.80;;;22.60;47.50;;;;;;5052156;28;20142;-79
2022/05/08 12:02:12;;;;;;;3.53;1.33;;;21.40;49.30;;;;;;5036551;28;20063;-78
2022/05/08 12:04:41;;;;;;;2.58;1.17;;;20.40;51.10;;;;;;5042785;28;20394;-79
2022/05/08 12:07:10;;;;;;;5.53;1.27;;;20.30;52.70;;;;;;5055845;28;20045;-80
2022/05/08 12:09:41;;;;;;;2.08;0.90;;;21.10;49.70;;;;;;5074983;28;20047;-77
2022/05/08 12:12:26;;;;;;;3.55;1.15;;;21.60;49.50;;;;;;5054683;28;20088;-76
2022/05/08 12:14:58;;;;;;;4.05;1.02;;;22.40;47.60;;;;;;5035678;28;20046;-76
2022/05/08 12:17:26;;;;;;;3.35;0.93;;;21.80;48.20;;;;;;5049326;28;20517;-78
2022/05/08 12:19:54;;;;;;;2.33;0.80;;;20.90;48.40;;;;;;5044638;28;20041;-79
2022/05/08 12:22:28;;;;;;;1.70;0.95;;;20.20;50.60;;;;;;5036072;28;20053;-75
2022/05/08 12:24:58;;;;;;;1.25;0.73;;;19.30;51.30;;;;;;5050671;28;20087;-82
2022/05/08 12:27:25;;;;;;;1.83;1.33;;;18.80;53.00;;;;;;5052400;28;20049;-84
2022/05/08 12:29:54;;;;;;;1.25;0.88;;;18.10;54.10;;;;;;5063824;28;20571;-83
2022/05/08 12:32:23;;;;;;;4.05;1.20;;;17.50;55.70;;;;;;5044339;28;20113;-82
2022/05/08 12:34:57;;;;;;;3.15;0.80;;;16.90;57.30;;;;;;5037623;28;20476;-81
2022/05/08 12:37:26;;;;;;;1.77;0.80;;;16.30;56.80;;;;;;5048302;28;20091;-82
2022/05/08 12:39:54;;;;;;;2.47;1.08;;;16.00;57.80;;;;;;5044656;28;20053;-80
2022/05/08 12:42:22;;;;;;;1.52;1.00;;;16.80;57.80;;;;;;5041026;28;20059;-78
2022/05/08 12:44:49;;;;;;;4.25;1.05;;;18.50;55.50;;;;;;5046256;28;20095;-81
2022/05/08 12:47:19;;;;;;;2.95;1.40;;;19.50;52.30;;;;;;5039632;28;20053;-80
2022/05/08 12:49:48;;;;;;;3.05;1.92;;;19.00;52.70;;;;;;5059675;28;20060;-81
2022/05/08 12:52:16;;;;;;;3.60;1.35;;;18.50;53.80;;;;;;5048123;28;20042;-84
2022/05/08 12:54:44;;;;;;;2.47;0.90;;;19.80;53.20;;;;;;5061224;28;20067;-85
2022/05/08 12:57:11;;;;;;;0.98;0.70;;;21.70;50.50;;;;;;5038700;28;20044;-81
2022/05/08 12:59:46;;;;;;;1.85;1.15;;;23.00;47.90;;;;;;5016833;28;20408;-82
2022/05/08 13:02:15;;;;;;;1.15;0.88;;;23.90;45.90;;;;;;5046786;28;20612;-82
2022/05/08 13:04:45;;;;;;;2.90;0.80;;;24.70;45.00;;;;;;5053962;28;20044;-79
2022/05/08 13:07:14;;;;;;;5.32;1.38;;;24.80;44.70;;;;;;5051618;28;20053;-78
2022/05/08 13:09:42;;;;;;;0.63;0.60;;;24.40;45.20;;;;;;5037909;28;20055;-85
2022/05/08 13:12:09;;;;;;;1.58;1.02;;;24.50;44.70;;;;;;5038409;28;20087;-80
2022/05/08 13:14:37;;;;;;;2.08;1.23;;;24.40;44.60;;;;;;5055127;28;20479;-80
2022/05/08 13:17:06;;;;;;;1.67;0.90;;;24.80;44.40;;;;;;5056409;28;20417;-86
2022/05/08 13:19:34;;;;;;;2.60;1.10;;;25.40;43.50;;;;;;5054567;28;20463;-83
2022/05/08 13:22:05;;;;;;;3.72;0.98;;;25.50;43.00;;;;;;5044126;28;20053;-80
2022/05/08 13:24:32;;;;;;;6.55;1.05;;;25.60;43.00;;;;;;5068870;28;20482;-82
2022/05/08 13:27:04;;;;;;;4.38;1.23;;;25.60;43.00;;;;;;5041876;28;20049;-83
2022/05/08 13:29:34;;;;;;;4.57;1.23;;;26.00;42.50;;;;;;5055660;28;20144;-86
2022/05/08 13:32:02;;;;;;;4.47;1.08;;;26.30;41.50;;;;;;5037019;28;20057;-82
2022/05/08 13:34:30;;;;;;;3.53;0.90;;;26.40;41.20;;;;;;5048545;28;20151;-80
2022/05/08 13:36:58;;;;;;;2.65;0.82;;;25.90;41.10;;;;;;5039005;28;20050;-80
2022/05/08 13:39:27;;;;;;;1.13;1.00;;;26.00;41.70;;;;;;5046696;28;20131;-79
2022/05/08 13:41:56;;;;;;;3.70;1.33;;;26.40;40.30;;;;;;5045442;28;20045;-81
2022/05/08 13:44:24;;;;;;;1.20;0.82;;;26.40;39.60;;;;;;5065114;28;20048;-79
2022/05/08 13:46:53;;;;;;;1.70;0.88;;;26.50;39.40;;;;;;5046831;28;20061;-78
2022/05/08 13:49:23;;;;;;;1.13;0.90;;;26.60;39.50;;;;;;5060458;28;20132;-78